sensor_id;sensor_type;location;lat;lon;timestamp;temperature;humidity
65207;SHT31;58477;48.072;11.970;2023-01-15T00:00:46;5.32;72.45
65207;SHT31;58477;48.072;11.970;2023-01-15T00:03:11;5.27;72.30
65207;SHT31;58477;48.072;11.970;2023-01-15T00:05:37;5.31;72.33
65207;SHT31;58477;48.072;11.970;2023-01-15T00:08:02;5.35;72.09
65207;SHT31;58477;48.072;11.970;2023-01-15T00:10:28;5.36;72.66
65207;SHT31;58477;48.072;11.970;2023-01-15T00:12:53;5.22;73.67
65207;SHT31;58477;48.072;11.970;2023-01-15T00:15:19;5.22;74.44
65207;SHT31;58477;48.072;11.970;2023-01-15T00:17:44;5.48;72.64
65207;SHT31;58477;48.072;11.970;2023-01-15T00:20:10;5.44;72.00
65207;SHT31;58477;48.072;11.970;2023-01-15T00:22:36;5.46;72.00
65207;SHT31;58477;48.072;11.970;2023-01-15T00:25:02;5.34;71.92
65207;SHT31;58477;48.072;11.970;2023-01-15T00:27:46;5.27;72.51
65207;SHT31;58477;48.072;11.970;2023-01-15T00:30:15;5.30;72.13
65207;SHT31;58477;48.072;11.970;2023-01-15T00:32:42;5.28;73.04
65207;SHT31;58477;48.072;11.970;2023-01-15T00:35:19;5.30;73.13
65207;SHT31;58477;48.072;11.970;2023-01-15T00:37:45;5.42;72.76
65207;SHT31;58477;48.072;11.970;2023-01-15T00:40:11;5.00;73.98
65207;SHT31;58477;48.072;11.970;2023-01-15T00:42:37;4.94;74.37
65207;SHT31;58477;48.072;11.970;2023-01-15T00:45:04;5.05;73.57
65207;SHT31;58477;48.072;11.970;2023-01-15T00:47:43;5.15;74.83
65207;SHT31;58477;48.072;11.970;2023-01-15T00:50:12;5.00;75.92
65207;SHT31;58477;48.072;11.970;2023-01-15T00:52:38;4.92;75.95
65207;SHT31;58477;48.072;11.970;2023-01-15T00:55:04;5.00;74.64
65207;SHT31;58477;48.072;11.970;2023-01-15T00:57:30;4.94;75.08
65207;SHT31;58477;48.072;11.970;2023-01-15T00:59:55;4.97;74.27
65207;SHT31;58477;48.072;11.970;2023-01-15T01:02:21;5.08;73.65
65207;SHT31;58477;48.072;11.970;2023-01-15T01:04:47;5.15;74.15
65207;SHT31;58477;48.072;11.970;2023-01-15T01:07:13;5.10;73.61
65207;SHT31;58477;48.072;11.970;2023-01-15T01:09:40;5.04;73.89
65207;SHT31;58477;48.072;11.970;2023-01-15T01:12:06;4.87;74.17
65207;SHT31;58477;48.072;11.970;2023-01-15T01:14:31;4.92;74.39
65207;SHT31;58477;48.072;11.970;2023-01-15T01:16:57;4.90;74.40
65207;SHT31;58477;48.072;11.970;2023-01-15T01:19:23;5.08;74.15
65207;SHT31;58477;48.072;11.970;2023-01-15T01:21:50;5.07;76.61
65207;SHT31;58477;48.072;11.970;2023-01-15T01:24:18;5.07;75.30
65207;SHT31;58477;48.072;11.970;2023-01-15T01:26:44;5.21;75.57
65207;SHT31;58477;48.072;11.970;2023-01-15T01:29:14;5.18;75.70
65207;SHT31;58477;48.072;11.970;2023-01-15T01:31:41;5.11;76.19
65207;SHT31;58477;48.072;11.970;2023-01-15T01:34:08;4.91;76.23
65207;SHT31;58477;48.072;11.970;2023-01-15T01:36:35;4.91;76.34
65207;SHT31;58477;48.072;11.970;2023-01-15T01:39:02;4.69;76.16
65207;SHT31;58477;48.072;11.970;2023-01-15T01:41:28;4.79;76.54
65207;SHT31;58477;48.072;11.970;2023-01-15T01:43:55;4.70;78.29
65207;SHT31;58477;48.072;11.970;2023-01-15T01:46:20;4.47;79.28
65207;SHT31;58477;48.072;11.970;2023-01-15T01:48:48;4.32;78.88
65207;SHT31;58477;48.072;11.970;2023-01-15T01:51:14;4.37;77.28
65207;SHT31;58477;48.072;11.970;2023-01-15T01:53:40;4.43;79.49
65207;SHT31;58477;48.072;11.970;2023-01-15T01:56:09;4.26;83.43
65207;SHT31;58477;48.072;11.970;2023-01-15T01:58:36;4.32;78.29
65207;SHT31;58477;48.072;11.970;2023-01-15T02:01:03;4.23;78.44
65207;SHT31;58477;48.072;11.970;2023-01-15T02:03:33;4.36;77.13
65207;SHT31;58477;48.072;11.970;2023-01-15T02:06:02;4.46;76.30
65207;SHT31;58477;48.072;11.970;2023-01-15T02:08:29;4.45;76.79
65207;SHT31;58477;48.072;11.970;2023-01-15T02:10:57;4.35;79.21
65207;SHT31;58477;48.072;11.970;2023-01-15T02:13:53;4.26;78.00
65207;SHT31;58477;48.072;11.970;2023-01-15T02:16:26;4.37;77.28
65207;SHT31;58477;48.072;11.970;2023-01-15T02:22:23;4.35;78.39
65207;SHT31;58477;48.072;11.970;2023-01-15T02:27:29;4.30;79.22
65207;SHT31;58477;48.072;11.970;2023-01-15T02:32:49;4.47;77.54
65207;SHT31;58477;48.072;11.970;2023-01-15T02:35:20;4.71;75.82
65207;SHT31;58477;48.072;11.970;2023-01-15T02:37:50;4.84;75.93
65207;SHT31;58477;48.072;11.970;2023-01-15T02:40:20;4.91;76.97
65207;SHT31;58477;48.072;11.970;2023-01-15T02:42:48;4.85;77.41
65207;SHT31;58477;48.072;11.970;2023-01-15T02:45:18;4.87;77.50
65207;SHT31;58477;48.072;11.970;2023-01-15T02:47:50;4.79;79.11
65207;SHT31;58477;48.072;11.970;2023-01-15T02:50:19;4.80;78.84
65207;SHT31;58477;48.072;11.970;2023-01-15T02:52:48;4.85;79.06
65207;SHT31;58477;48.072;11.970;2023-01-15T02:55:27;4.79;80.99
65207;SHT31;58477;48.072;11.970;2023-01-15T02:57:57;4.61;80.58
65207;SHT31;58477;48.072;11.970;2023-01-15T03:00:23;4.64;79.44
65207;SHT31;58477;48.072;11.970;2023-01-15T03:02:56;4.64;78.82
65207;SHT31;58477;48.072;11.970;2023-01-15T03:05:29;5.04;76.74
65207;SHT31;58477;48.072;11.970;2023-01-15T03:07:58;5.07;76.30
65207;SHT31;58477;48.072;11.970;2023-01-15T03:11:01;5.00;77.02
65207;SHT31;58477;48.072;11.970;2023-01-15T03:13:39;4.91;77.41
65207;SHT31;58477;48.072;11.970;2023-01-15T03:16:43;4.74;78.29
65207;SHT31;58477;48.072;11.970;2023-01-15T03:19:23;4.73;79.64
65207;SHT31;58477;48.072;11.970;2023-01-15T03:21:54;4.73;80.75
65207;SHT31;58477;48.072;11.970;2023-01-15T03:27:10;4.79;79.86
65207;SHT31;58477;48.072;11.970;2023-01-15T03:29:42;4.98;77.05
65207;SHT31;58477;48.072;11.970;2023-01-15T03:32:10;5.10;76.43
65207;SHT31;58477;48.072;11.970;2023-01-15T03:34:41;5.10;76.20
65207;SHT31;58477;48.072;11.970;2023-01-15T03:37:07;5.21;76.37
65207;SHT31;58477;48.072;11.970;2023-01-15T03:39:33;5.08;76.25
65207;SHT31;58477;48.072;11.970;2023-01-15T03:45:19;5.28;75.38
65207;SHT31;58477;48.072;11.970;2023-01-15T03:48:17;5.25;75.71
65207;SHT31;58477;48.072;11.970;2023-01-15T03:50:49;5.24;76.84
65207;SHT31;58477;48.072;11.970;2023-01-15T03:53:26;5.34;74.91
65207;SHT31;58477;48.072;11.970;2023-01-15T03:56:05;5.25;76.04
65207;SHT31;58477;48.072;11.970;2023-01-15T03:58:46;5.22;75.68
65207;SHT31;58477;48.072;11.970;2023-01-15T04:01:19;5.21;76.00
65207;SHT31;58477;48.072;11.970;2023-01-15T04:03:47;5.31;74.88
65207;SHT31;58477;48.072;11.970;2023-01-15T04:06:15;5.48;74.45
65207;SHT31;58477;48.072;11.970;2023-01-15T04:08:42;5.35;75.39
65207;SHT31;58477;48.072;11.970;2023-01-15T04:11:10;5.39;76.14
65207;SHT31;58477;48.072;11.970;2023-01-15T04:13:41;5.36;79.98
65207;SHT31;58477;48.072;11.970;2023-01-15T04:16:27;5.34;81.19
65207;SHT31;58477;48.072;11.970;2023-01-15T04:18:53;5.32;80.68
65207;SHT31;58477;48.072;11.970;2023-01-15T04:21:20;5.17;77.35
65207;SHT31;58477;48.072;11.970;2023-01-15T04:23:45;5.24;76.66
65207;SHT31;58477;48.072;11.970;2023-01-15T04:26:11;5.42;79.84
65207;SHT31;58477;48.072;11.970;2023-01-15T04:28:36;5.44;79.91
65207;SHT31;58477;48.072;11.970;2023-01-15T04:31:02;5.44;79.54
65207;SHT31;58477;48.072;11.970;2023-01-15T04:33:27;5.54;78.33
65207;SHT31;58477;48.072;11.970;2023-01-15T04:35:53;5.52;79.09
65207;SHT31;58477;48.072;11.970;2023-01-15T04:38:18;5.34;78.69
65207;SHT31;58477;48.072;11.970;2023-01-15T04:40:44;5.39;80.44
65207;SHT31;58477;48.072;11.970;2023-01-15T04:43:28;5.36;80.47
65207;SHT31;58477;48.072;11.970;2023-01-15T04:46:12;5.41;79.60
65207;SHT31;58477;48.072;11.970;2023-01-15T04:48:38;5.35;80.81
65207;SHT31;58477;48.072;11.970;2023-01-15T04:51:06;5.45;79.37
65207;SHT31;58477;48.072;11.970;2023-01-15T04:53:32;5.38;77.83
65207;SHT31;58477;48.072;11.970;2023-01-15T04:56:04;5.36;77.55
65207;SHT31;58477;48.072;11.970;2023-01-15T04:58:31;5.34;76.84
65207;SHT31;58477;48.072;11.970;2023-01-15T05:00:56;5.55;76.97
65207;SHT31;58477;48.072;11.970;2023-01-15T05:03:28;5.65;78.51
65207;SHT31;58477;48.072;11.970;2023-01-15T05:05:53;5.56;78.11
65207;SHT31;58477;48.072;11.970;2023-01-15T05:08:18;5.55;79.25
65207;SHT31;58477;48.072;11.970;2023-01-15T05:10:44;5.28;80.21
65207;SHT31;58477;48.072;11.970;2023-01-15T05:13:09;5.49;78.96
65207;SHT31;58477;48.072;11.970;2023-01-15T05:15:35;5.55;78.52
65207;SHT31;58477;48.072;11.970;2023-01-15T05:18:03;5.32;80.04
65207;SHT31;58477;48.072;11.970;2023-01-15T05:20:28;5.27;80.26
65207;SHT31;58477;48.072;11.970;2023-01-15T05:22:54;5.41;77.60
65207;SHT31;58477;48.072;11.970;2023-01-15T05:25:19;5.39;79.47
65207;SHT31;58477;48.072;11.970;2023-01-15T05:27:44;5.34;78.11
65207;SHT31;58477;48.072;11.970;2023-01-15T05:30:10;5.54;75.25
65207;SHT31;58477;48.072;11.970;2023-01-15T05:32:36;5.67;74.94
65207;SHT31;58477;48.072;11.970;2023-01-15T05:35:01;5.90;72.67
65207;SHT31;58477;48.072;11.970;2023-01-15T05:37:29;5.82;74.49
65207;SHT31;58477;48.072;11.970;2023-01-15T05:39:54;5.73;76.57
65207;SHT31;58477;48.072;11.970;2023-01-15T05:42:20;5.69;75.93
65207;SHT31;58477;48.072;11.970;2023-01-15T05:44:45;5.80;79.18
65207;SHT31;58477;48.072;11.970;2023-01-15T05:47:10;5.66;78.08
65207;SHT31;58477;48.072;11.970;2023-01-15T05:49:36;5.73;76.78
65207;SHT31;58477;48.072;11.970;2023-01-15T05:52:02;5.83;74.03
65207;SHT31;58477;48.072;11.970;2023-01-15T05:54:31;5.75;77.66
65207;SHT31;58477;48.072;11.970;2023-01-15T05:56:56;5.56;77.70
65207;SHT31;58477;48.072;11.970;2023-01-15T05:59:24;5.63;77.25
65207;SHT31;58477;48.072;11.970;2023-01-15T06:01:50;5.59;75.77
65207;SHT31;58477;48.072;11.970;2023-01-15T06:04:16;5.59;78.96
65207;SHT31;58477;48.072;11.970;2023-01-15T06:06:45;5.60;78.62
65207;SHT31;58477;48.072;11.970;2023-01-15T06:09:11;5.34;80.98
65207;SHT31;58477;48.072;11.970;2023-01-15T06:11:37;5.27;84.09
65207;SHT31;58477;48.072;11.970;2023-01-15T06:14:03;5.32;81.80
65207;SHT31;58477;48.072;11.970;2023-01-15T06:16:28;5.22;83.45
65207;SHT31;58477;48.072;11.970;2023-01-15T06:18:54;5.24;85.75
65207;SHT31;58477;48.072;11.970;2023-01-15T06:21:19;5.22;84.69
65207;SHT31;58477;48.072;11.970;2023-01-15T06:23:45;5.05;85.31
65207;SHT31;58477;48.072;11.970;2023-01-15T06:26:16;4.77;85.13
65207;SHT31;58477;48.072;11.970;2023-01-15T06:28:42;4.67;86.61
65207;SHT31;58477;48.072;11.970;2023-01-15T06:31:10;4.80;82.92
65207;SHT31;58477;48.072;11.970;2023-01-15T06:33:37;4.74;86.47
65207;SHT31;58477;48.072;11.970;2023-01-15T06:36:07;4.70;87.34
65207;SHT31;58477;48.072;11.970;2023-01-15T06:38:33;4.67;89.12
65207;SHT31;58477;48.072;11.970;2023-01-15T06:41:00;4.69;87.15
65207;SHT31;58477;48.072;11.970;2023-01-15T06:43:26;4.79;87.50
65207;SHT31;58477;48.072;11.970;2023-01-15T06:46:11;4.71;87.96
65207;SHT31;58477;48.072;11.970;2023-01-15T06:48:55;4.66;86.85
65207;SHT31;58477;48.072;11.970;2023-01-15T06:51:20;4.60;88.37
65207;SHT31;58477;48.072;11.970;2023-01-15T06:53:46;4.59;88.39
65207;SHT31;58477;48.072;11.970;2023-01-15T06:56:13;4.57;84.39
65207;SHT31;58477;48.072;11.970;2023-01-15T06:58:40;4.54;85.12
65207;SHT31;58477;48.072;11.970;2023-01-15T07:01:10;4.61;85.66
65207;SHT31;58477;48.072;11.970;2023-01-15T07:03:36;4.71;86.98
65207;SHT31;58477;48.072;11.970;2023-01-15T07:06:09;4.87;87.05
65207;SHT31;58477;48.072;11.970;2023-01-15T07:08:35;5.01;86.12
65207;SHT31;58477;48.072;11.970;2023-01-15T07:11:05;4.98;86.59
65207;SHT31;58477;48.072;11.970;2023-01-15T07:13:31;4.81;86.84
65207;SHT31;58477;48.072;11.970;2023-01-15T07:16:01;5.02;80.80
65207;SHT31;58477;48.072;11.970;2023-01-15T07:18:28;5.12;80.76
65207;SHT31;58477;48.072;11.970;2023-01-15T07:20:55;5.02;84.02
65207;SHT31;58477;48.072;11.970;2023-01-15T07:23:22;4.95;84.52
65207;SHT31;58477;48.072;11.970;2023-01-15T07:25:47;4.85;85.88
65207;SHT31;58477;48.072;11.970;2023-01-15T07:28:13;4.97;82.21
65207;SHT31;58477;48.072;11.970;2023-01-15T07:30:38;4.91;83.82
65207;SHT31;58477;48.072;11.970;2023-01-15T07:33:04;4.97;82.39
65207;SHT31;58477;48.072;11.970;2023-01-15T07:35:29;4.91;83.09
65207;SHT31;58477;48.072;11.970;2023-01-15T07:37:55;4.85;85.05
65207;SHT31;58477;48.072;11.970;2023-01-15T07:40:21;4.91;85.25
65207;SHT31;58477;48.072;11.970;2023-01-15T07:42:46;5.14;84.67
65207;SHT31;58477;48.072;11.970;2023-01-15T07:45:30;5.14;83.83
65207;SHT31;58477;48.072;11.970;2023-01-15T07:48:14;5.05;84.11
65207;SHT31;58477;48.072;11.970;2023-01-15T07:50:58;5.04;86.41
65207;SHT31;58477;48.072;11.970;2023-01-15T07:53:23;5.02;86.18
65207;SHT31;58477;48.072;11.970;2023-01-15T07:55:49;5.14;86.34
65207;SHT31;58477;48.072;11.970;2023-01-15T07:58:14;5.12;86.11
65207;SHT31;58477;48.072;11.970;2023-01-15T08:00:40;5.20;85.42
65207;SHT31;58477;48.072;11.970;2023-01-15T08:03:05;5.25;84.90
65207;SHT31;58477;48.072;11.970;2023-01-15T08:05:31;5.32;84.84
65207;SHT31;58477;48.072;11.970;2023-01-15T08:07:56;5.30;85.49
65207;SHT31;58477;48.072;11.970;2023-01-15T08:10:21;5.36;84.31
65207;SHT31;58477;48.072;11.970;2023-01-15T08:12:49;5.35;84.84
65207;SHT31;58477;48.072;11.970;2023-01-15T08:15:37;5.42;84.27
65207;SHT31;58477;48.072;11.970;2023-01-15T08:18:03;5.48;84.52
65207;SHT31;58477;48.072;11.970;2023-01-15T08:20:29;5.58;85.82
65207;SHT31;58477;48.072;11.970;2023-01-15T08:22:54;5.59;85.19
65207;SHT31;58477;48.072;11.970;2023-01-15T08:25:23;5.54;85.69
65207;SHT31;58477;48.072;11.970;2023-01-15T08:27:48;5.49;86.16
65207;SHT31;58477;48.072;11.970;2023-01-15T08:30:20;5.51;86.05
65207;SHT31;58477;48.072;11.970;2023-01-15T08:32:45;5.60;86.74
65207;SHT31;58477;48.072;11.970;2023-01-15T08:35:11;5.55;87.64
65207;SHT31;58477;48.072;11.970;2023-01-15T08:37:38;5.85;86.79
65207;SHT31;58477;48.072;11.970;2023-01-15T08:40:04;5.69;86.67
65207;SHT31;58477;48.072;11.970;2023-01-15T08:42:29;5.92;85.79
65207;SHT31;58477;48.072;11.970;2023-01-15T08:44:55;5.92;85.85
65207;SHT31;58477;48.072;11.970;2023-01-15T08:47:20;5.92;85.42
65207;SHT31;58477;48.072;11.970;2023-01-15T08:49:46;6.14;85.08
65207;SHT31;58477;48.072;11.970;2023-01-15T08:52:13;6.21;85.41
65207;SHT31;58477;48.072;11.970;2023-01-15T08:54:38;6.30;85.42
65207;SHT31;58477;48.072;11.970;2023-01-15T08:57:04;6.26;86.06
65207;SHT31;58477;48.072;11.970;2023-01-15T08:59:29;6.16;87.94
65207;SHT31;58477;48.072;11.970;2023-01-15T09:01:55;6.03;88.80
65207;SHT31;58477;48.072;11.970;2023-01-15T09:04:21;6.05;88.34
65207;SHT31;58477;48.072;11.970;2023-01-15T09:06:48;6.19;87.78
65207;SHT31;58477;48.072;11.970;2023-01-15T09:09:13;6.17;88.41
65207;SHT31;58477;48.072;11.970;2023-01-15T09:11:40;6.38;87.18
65207;SHT31;58477;48.072;11.970;2023-01-15T09:14:11;6.54;86.08
65207;SHT31;58477;48.072;11.970;2023-01-15T09:16:37;6.50;88.19
65207;SHT31;58477;48.072;11.970;2023-01-15T09:19:05;6.71;84.76
65207;SHT31;58477;48.072;11.970;2023-01-15T09:21:30;6.91;83.81
65207;SHT31;58477;48.072;11.970;2023-01-15T09:23:56;6.87;84.80
65207;SHT31;58477;48.072;11.970;2023-01-15T09:28:49;6.84;84.68
65207;SHT31;58477;48.072;11.970;2023-01-15T09:31:15;6.81;86.87
65207;SHT31;58477;48.072;11.970;2023-01-15T09:33:40;6.98;84.97
65207;SHT31;58477;48.072;11.970;2023-01-15T09:36:14;7.14;81.67
65207;SHT31;58477;48.072;11.970;2023-01-15T09:38:40;7.14;82.03
65207;SHT31;58477;48.072;11.970;2023-01-15T09:41:10;7.01;84.50
65207;SHT31;58477;48.072;11.970;2023-01-15T09:44:40;6.98;84.68
65207;SHT31;58477;48.072;11.970;2023-01-15T09:47:08;7.04;84.78
65207;SHT31;58477;48.072;11.970;2023-01-15T09:52:44;7.20;83.73
65207;SHT31;58477;48.072;11.970;2023-01-15T09:55:18;7.28;83.05
65207;SHT31;58477;48.072;11.970;2023-01-15T09:57:45;7.32;83.46
65207;SHT31;58477;48.072;11.970;2023-01-15T10:00:18;7.55;81.17
65207;SHT31;58477;48.072;11.970;2023-01-15T10:05:25;8.54;77.33
65207;SHT31;58477;48.072;11.970;2023-01-15T10:13:46;10.07;72.20
65207;SHT31;58477;48.072;11.970;2023-01-15T10:16:20;10.12;72.28
65207;SHT31;58477;48.072;11.970;2023-01-15T10:18:46;10.25;72.48
65207;SHT31;58477;48.072;11.970;2023-01-15T10:21:42;10.24;72.89
65207;SHT31;58477;48.072;11.970;2023-01-15T10:24:40;10.38;71.80
65207;SHT31;58477;48.072;11.970;2023-01-15T10:27:21;10.66;70.73
65207;SHT31;58477;48.072;11.970;2023-01-15T10:32:46;10.80;70.71
65207;SHT31;58477;48.072;11.970;2023-01-15T10:35:35;10.68;73.14
65207;SHT31;58477;48.072;11.970;2023-01-15T10:44:02;8.40;83.02
65207;SHT31;58477;48.072;11.970;2023-01-15T10:46:32;7.93;84.06
65207;SHT31;58477;48.072;11.970;2023-01-15T10:49:13;7.69;84.73
65207;SHT31;58477;48.072;11.970;2023-01-15T10:54:47;7.43;84.83
65207;SHT31;58477;48.072;11.970;2023-01-15T10:57:24;7.33;85.28
65207;SHT31;58477;48.072;11.970;2023-01-15T10:59:59;7.30;85.18
65207;SHT31;58477;48.072;11.970;2023-01-15T11:05:01;7.20;85.60
65207;SHT31;58477;48.072;11.970;2023-01-15T11:07:36;7.12;86.11
65207;SHT31;58477;48.072;11.970;2023-01-15T11:10:06;7.05;84.48
65207;SHT31;58477;48.072;11.970;2023-01-15T11:12:34;7.04;84.03
65207;SHT31;58477;48.072;11.970;2023-01-15T11:15:23;6.98;83.65
65207;SHT31;58477;48.072;11.970;2023-01-15T11:18:14;6.88;83.27
65207;SHT31;58477;48.072;11.970;2023-01-15T11:21:00;6.88;83.30
65207;SHT31;58477;48.072;11.970;2023-01-15T11:23:26;6.91;83.56
65207;SHT31;58477;48.072;11.970;2023-01-15T11:25:56;6.89;83.29
65207;SHT31;58477;48.072;11.970;2023-01-15T11:31:01;6.91;84.07
65207;SHT31;58477;48.072;11.970;2023-01-15T11:33:28;6.84;84.16
65207;SHT31;58477;48.072;11.970;2023-01-15T11:35:58;6.73;83.38
65207;SHT31;58477;48.072;11.970;2023-01-15T11:38:29;6.47;82.56
65207;SHT31;58477;48.072;11.970;2023-01-15T11:41:00;6.41;83.51
65207;SHT31;58477;48.072;11.970;2023-01-15T11:43:28;6.30;82.85
65207;SHT31;58477;48.072;11.970;2023-01-15T11:46:31;6.07;82.17
65207;SHT31;58477;48.072;11.970;2023-01-15T11:49:17;6.06;82.23
65207;SHT31;58477;48.072;11.970;2023-01-15T11:52:04;5.99;82.52
65207;SHT31;58477;48.072;11.970;2023-01-15T11:54:32;5.90;82.23
65207;SHT31;58477;48.072;11.970;2023-01-15T11:57:01;5.79;82.84
65207;SHT31;58477;48.072;11.970;2023-01-15T11:59:27;5.77;82.84
65207;SHT31;58477;48.072;11.970;2023-01-15T12:01:59;5.83;83.37
65207;SHT31;58477;48.072;11.970;2023-01-15T12:04:35;5.66;83.86
65207;SHT31;58477;48.072;11.970;2023-01-15T12:07:04;5.58;84.25
65207;SHT31;58477;48.072;11.970;2023-01-15T12:26:32;4.79;90.03
65207;SHT31;58477;48.072;11.970;2023-01-15T12:29:12;4.84;91.41
65207;SHT31;58477;48.072;11.970;2023-01-15T12:31:44;4.66;90.55
65207;SHT31;58477;48.072;11.970;2023-01-15T12:34:21;4.57;91.67
65207;SHT31;58477;48.072;11.970;2023-01-15T12:37:00;4.52;92.62
65207;SHT31;58477;48.072;11.970;2023-01-15T12:39:48;4.47;92.37
65207;SHT31;58477;48.072;11.970;2023-01-15T12:42:16;4.47;92.51
65207;SHT31;58477;48.072;11.970;2023-01-15T12:45:08;4.42;92.50
65207;SHT31;58477;48.072;11.970;2023-01-15T12:50:28;4.33;91.67
65207;SHT31;58477;48.072;11.970;2023-01-15T12:53:02;4.32;91.69
65207;SHT31;58477;48.072;11.970;2023-01-15T12:55:32;4.30;91.69
65207;SHT31;58477;48.072;11.970;2023-01-15T12:58:01;4.26;93.19
65207;SHT31;58477;48.072;11.970;2023-01-15T13:00:32;4.25;93.09
65207;SHT31;58477;48.072;11.970;2023-01-15T13:03:20;4.23;93.08
65207;SHT31;58477;48.072;11.970;2023-01-15T13:05:51;4.22;92.68
65207;SHT31;58477;48.072;11.970;2023-01-15T13:08:24;4.22;93.24
65207;SHT31;58477;48.072;11.970;2023-01-15T13:10:51;4.26;92.97
65207;SHT31;58477;48.072;11.970;2023-01-15T13:13:18;4.25;92.89
65207;SHT31;58477;48.072;11.970;2023-01-15T13:18:44;4.25;92.89
65207;SHT31;58477;48.072;11.970;2023-01-15T13:21:16;4.22;93.30
65207;SHT31;58477;48.072;11.970;2023-01-15T13:24:24;4.22;93.13
65207;SHT31;58477;48.072;11.970;2023-01-15T13:27:23;4.19;93.75
65207;SHT31;58477;48.072;11.970;2023-01-15T13:33:05;4.22;93.78
65207;SHT31;58477;48.072;11.970;2023-01-15T13:35:41;4.22;93.99
65207;SHT31;58477;48.072;11.970;2023-01-15T13:38:20;4.20;93.95
65207;SHT31;58477;48.072;11.970;2023-01-15T13:40:49;4.20;94.10
65207;SHT31;58477;48.072;11.970;2023-01-15T13:43:34;4.23;94.34
65207;SHT31;58477;48.072;11.970;2023-01-15T13:46:07;4.25;93.81
65207;SHT31;58477;48.072;11.970;2023-01-15T13:48:39;4.23;93.64
65207;SHT31;58477;48.072;11.970;2023-01-15T13:51:06;4.26;93.51
65207;SHT31;58477;48.072;11.970;2023-01-15T13:53:37;4.23;93.30
65207;SHT31;58477;48.072;11.970;2023-01-15T13:56:07;4.23;92.40
65207;SHT31;58477;48.072;11.970;2023-01-15T13:58:37;4.20;92.66
65207;SHT31;58477;48.072;11.970;2023-01-15T14:04:13;4.22;92.69
65207;SHT31;58477;48.072;11.970;2023-01-15T14:06:49;4.19;92.18
65207;SHT31;58477;48.072;11.970;2023-01-15T14:23:35;4.12;92.28
65207;SHT31;58477;48.072;11.970;2023-01-15T14:26:26;4.13;90.45
65207;SHT31;58477;48.072;11.970;2023-01-15T14:34:26;4.02;91.53
65207;SHT31;58477;48.072;11.970;2023-01-15T14:39:31;3.96;91.53
65207;SHT31;58477;48.072;11.970;2023-01-15T14:42:12;3.96;91.21
65207;SHT31;58477;48.072;11.970;2023-01-15T14:45:00;3.96;91.40
65207;SHT31;58477;48.072;11.970;2023-01-15T14:47:34;3.96;90.22
65207;SHT31;58477;48.072;11.970;2023-01-15T14:50:21;3.86;90.29
65207;SHT31;58477;48.072;11.970;2023-01-15T14:52:48;3.83;90.21
65207;SHT31;58477;48.072;11.970;2023-01-15T14:55:15;3.72;90.38
65207;SHT31;58477;48.072;11.970;2023-01-15T14:57:46;3.72;91.62
65207;SHT31;58477;48.072;11.970;2023-01-15T15:00:16;3.61;90.52
65207;SHT31;58477;48.072;11.970;2023-01-15T15:02:44;3.55;91.44
65207;SHT31;58477;48.072;11.970;2023-01-15T15:05:19;3.51;91.68
65207;SHT31;58477;48.072;11.970;2023-01-15T15:07:47;3.44;91.81
65207;SHT31;58477;48.072;11.970;2023-01-15T15:10:26;3.38;92.19
65207;SHT31;58477;48.072;11.970;2023-01-15T15:13:08;3.32;93.07
65207;SHT31;58477;48.072;11.970;2023-01-15T15:19:01;3.17;93.09
65207;SHT31;58477;48.072;11.970;2023-01-15T15:21:32;3.04;92.93
65207;SHT31;58477;48.072;11.970;2023-01-15T15:24:12;2.97;92.94
65207;SHT31;58477;48.072;11.970;2023-01-15T15:26:40;2.90;93.74
65207;SHT31;58477;48.072;11.970;2023-01-15T15:29:15;2.86;93.85
65207;SHT31;58477;48.072;11.970;2023-01-15T15:34:27;2.67;93.73
65207;SHT31;58477;48.072;11.970;2023-01-15T15:36:54;2.67;94.15
65207;SHT31;58477;48.072;11.970;2023-01-15T15:39:27;2.64;94.42
65207;SHT31;58477;48.072;11.970;2023-01-15T15:41:54;2.66;94.72
65207;SHT31;58477;48.072;11.970;2023-01-15T15:47:27;2.57;94.80
65207;SHT31;58477;48.072;11.970;2023-01-15T15:50:24;2.56;95.10
65207;SHT31;58477;48.072;11.970;2023-01-15T15:52:50;2.54;95.18
65207;SHT31;58477;48.072;11.970;2023-01-15T15:55:18;2.59;95.39
65207;SHT31;58477;48.072;11.970;2023-01-15T15:57:47;2.54;94.96
65207;SHT31;58477;48.072;11.970;2023-01-15T16:00:19;2.56;95.53
65207;SHT31;58477;48.072;11.970;2023-01-15T16:02:46;2.53;95.65
65207;SHT31;58477;48.072;11.970;2023-01-15T16:07:43;2.56;95.64
65207;SHT31;58477;48.072;11.970;2023-01-15T16:10:12;2.59;95.90
65207;SHT31;58477;48.072;11.970;2023-01-15T16:12:44;2.62;95.79
65207;SHT31;58477;48.072;11.970;2023-01-15T16:15:17;2.64;96.04
65207;SHT31;58477;48.072;11.970;2023-01-15T16:17:44;2.69;95.59
65207;SHT31;58477;48.072;11.970;2023-01-15T16:20:16;2.71;95.49
65207;SHT31;58477;48.072;11.970;2023-01-15T16:22:57;2.84;95.40
65207;SHT31;58477;48.072;11.970;2023-01-15T16:25:35;2.86;94.71
65207;SHT31;58477;48.072;11.970;2023-01-15T16:28:02;2.87;95.14
65207;SHT31;58477;48.072;11.970;2023-01-15T16:30:29;2.90;94.93
65207;SHT31;58477;48.072;11.970;2023-01-15T16:33:00;2.92;94.89
65207;SHT31;58477;48.072;11.970;2023-01-15T16:35:28;2.96;94.69
65207;SHT31;58477;48.072;11.970;2023-01-15T16:37:56;2.99;94.63
65207;SHT31;58477;48.072;11.970;2023-01-15T16:40:27;3.00;94.21
65207;SHT31;58477;48.072;11.970;2023-01-15T16:43:15;3.01;93.64
65207;SHT31;58477;48.072;11.970;2023-01-15T16:46:05;3.06;93.45
65207;SHT31;58477;48.072;11.970;2023-01-15T16:48:36;3.06;92.72
65207;SHT31;58477;48.072;11.970;2023-01-15T16:53:51;2.97;91.69
65207;SHT31;58477;48.072;11.970;2023-01-15T16:58:50;2.84;91.22
65207;SHT31;58477;48.072;11.970;2023-01-15T17:01:37;2.86;91.52
65207;SHT31;58477;48.072;11.970;2023-01-15T17:04:28;2.86;90.49
65207;SHT31;58477;48.072;11.970;2023-01-15T17:06:58;2.80;91.83
65207;SHT31;58477;48.072;11.970;2023-01-15T17:09:25;2.77;91.58
65207;SHT31;58477;48.072;11.970;2023-01-15T17:11:51;2.69;90.96
65207;SHT31;58477;48.072;11.970;2023-01-15T17:14:23;2.73;90.14
65207;SHT31;58477;48.072;11.970;2023-01-15T17:19:43;2.67;90.26
65207;SHT31;58477;48.072;11.970;2023-01-15T17:22:14;2.64;89.67
65207;SHT31;58477;48.072;11.970;2023-01-15T17:24:51;2.63;89.02
65207;SHT31;58477;48.072;11.970;2023-01-15T17:27:17;2.60;90.17
65207;SHT31;58477;48.072;11.970;2023-01-15T17:29:42;2.56;89.71
65207;SHT31;58477;48.072;11.970;2023-01-15T17:32:13;2.54;90.11
65207;SHT31;58477;48.072;11.970;2023-01-15T17:34:40;2.49;90.21
65207;SHT31;58477;48.072;11.970;2023-01-15T17:37:05;2.50;89.73
65207;SHT31;58477;48.072;11.970;2023-01-15T17:39:31;2.52;89.52
65207;SHT31;58477;48.072;11.970;2023-01-15T17:41:56;2.46;89.41
65207;SHT31;58477;48.072;11.970;2023-01-15T17:44:21;2.45;89.17
65207;SHT31;58477;48.072;11.970;2023-01-15T17:46:48;2.46;88.44
65207;SHT31;58477;48.072;11.970;2023-01-15T17:49:13;2.43;89.38